createdAt,value
2022-08-17T00:01:51.532Z,43.92
2022-08-17T00:04:19.920Z,45.47
2022-08-17T00:06:47.545Z,46.05
2022-08-17T00:09:18.919Z,45.80
2022-08-17T00:12:43.682Z,46.65
2022-08-17T00:14:35.005Z,46.35
2022-08-17T00:17:03.906Z,47.40
2022-08-17T00:19:32.877Z,49.35
2022-08-17T00:22:30.964Z,50.00
2022-08-17T00:24:50.601Z,47.90
2022-08-17T00:27:18.381Z,47.95
2022-08-17T00:29:46.659Z,47.22
2022-08-17T00:33:15.012Z,48.40
2022-08-17T00:35:04.527Z,49.42
2022-08-17T00:37:31.851Z,49.35
2022-08-17T00:39:59.183Z,48.28
2022-08-17T00:42:30.903Z,48.70
2022-08-17T00:44:58.332Z,51.00
2022-08-17T00:47:25.668Z,53.83
2022-08-17T00:49:52.983Z,51.95
2022-08-17T00:52:23.930Z,54.35
2022-08-17T00:54:54.097Z,51.80
2022-08-17T00:57:24.611Z,51.67
2022-08-17T01:00:01.823Z,52.05
2022-08-17T01:02:34.411Z,51.65
2022-08-17T01:05:11.073Z,51.30
2022-08-17T01:07:38.946Z,49.50
2022-08-17T01:10:07.427Z,49.78
2022-08-17T01:12:54.893Z,47.25
2022-08-17T01:15:22.151Z,50.03
2022-08-17T01:17:49.596Z,49.53
2022-08-17T01:20:16.982Z,48.63
2022-08-17T01:22:44.316Z,49.10
2022-08-17T01:25:12.668Z,47.85
2022-08-17T01:27:40.165Z,45.17
2022-08-17T01:30:56.754Z,49.10
2022-08-17T01:32:56.651Z,47.55
2022-08-17T01:35:24.013Z,45.50
2022-08-17T01:37:51.266Z,42.92
2022-08-17T01:40:30.524Z,41.92
2022-08-17T01:43:00.190Z,42.17
2022-08-17T01:45:30.348Z,42.55
2022-08-17T01:47:57.859Z,40.75
2022-08-17T01:50:27.870Z,40.55
2022-08-17T01:52:57.956Z,40.60
2022-08-17T01:55:29.499Z,36.28
2022-08-17T02:00:24.046Z,37.55
2022-08-17T02:02:51.490Z,41.05
2022-08-17T02:05:18.901Z,38.63
2022-08-17T02:07:59.655Z,35.25
2022-08-17T02:10:33.735Z,33.33
2022-08-17T02:13:02.503Z,32.85
2022-08-17T02:15:29.872Z,34.33
2022-08-17T02:17:57.220Z,35.17
2022-08-17T02:20:42.032Z,35.15
2022-08-17T02:23:11.891Z,34.42
2022-08-17T02:25:39.915Z,33.45
2022-08-17T02:28:07.309Z,33.45
2022-08-17T02:30:59.600Z,37.53
2022-08-17T02:33:22.261Z,39.30
2022-08-17T02:35:49.663Z,38.05
2022-08-17T02:38:17.480Z,39.00
2022-08-17T02:40:45.067Z,37.90
2022-08-17T02:43:13.779Z,40.25
2022-08-17T02:45:41.187Z,38.97
2022-08-17T02:48:08.878Z,37.92
2022-08-17T02:50:36.174Z,38.38
2022-08-17T02:53:04.747Z,37.85
2022-08-17T02:55:34.455Z,36.85
2022-08-17T02:58:03.690Z,36.35
2022-08-17T03:00:34.539Z,35.67
2022-08-17T03:03:02.651Z,33.97
2022-08-17T03:05:31.237Z,34.22
2022-08-17T03:07:58.570Z,34.65
2022-08-17T03:10:26.331Z,34.08
2022-08-17T03:12:53.785Z,32.17
2022-08-17T03:15:22.940Z,30.17
2022-08-17T03:17:50.561Z,28.05
2022-08-17T03:20:17.862Z,29.58
2022-08-17T03:22:48.118Z,28.67
2022-08-17T03:25:26.878Z,26.70
2022-08-17T03:27:54.249Z,29.38
2022-08-17T03:30:25.066Z,31.90
2022-08-17T03:32:54.698Z,30.07
2022-08-17T03:35:23.123Z,28.15
2022-08-17T03:37:57.012Z,27.98
2022-08-17T03:40:34.549Z,28.58
2022-08-17T03:43:15.802Z,27.15
2022-08-17T03:46:02.357Z,27.83
2022-08-17T03:48:48.532Z,27.20
2022-08-17T03:51:40.065Z,27.83
2022-08-17T03:54:26.513Z,27.35
2022-08-17T03:57:07.236Z,27.58
2022-08-17T03:59:34.971Z,27.15
2022-08-17T04:02:09.664Z,25.35
2022-08-17T04:04:37.103Z,25.52
2022-08-17T04:07:04.505Z,26.45
2022-08-17T04:09:31.835Z,27.33
2022-08-17T04:12:00.270Z,27.58
2022-08-17T04:14:33.708Z,26.92
2022-08-17T04:17:00.987Z,26.98
2022-08-17T04:19:28.320Z,25.38
2022-08-17T04:21:55.592Z,25.02
2022-08-17T04:24:22.870Z,27.55
2022-08-17T04:26:52.716Z,29.55
2022-08-17T04:29:21.640Z,29.30
2022-08-17T04:31:49.009Z,29.50
2022-08-17T04:34:19.889Z,33.00
2022-08-17T04:36:50.225Z,34.80
2022-08-17T04:39:17.800Z,34.17
2022-08-17T04:42:03.617Z,37.67
2022-08-17T04:44:37.670Z,38.13
2022-08-17T04:47:07.198Z,38.38
2022-08-17T04:49:38.054Z,34.63
2022-08-17T04:52:05.544Z,33.83
2022-08-17T04:54:32.835Z,31.30
2022-08-17T04:57:00.217Z,30.63
2022-08-17T04:59:27.574Z,33.08
2022-08-17T05:01:54.896Z,33.40
2022-08-17T05:04:35.020Z,32.92
2022-08-17T05:07:04.639Z,33.78
2022-08-17T05:09:31.982Z,35.80
2022-08-17T05:12:02.243Z,33.67
2022-08-17T05:14:32.937Z,33.45
2022-08-17T05:19:28.508Z,31.23
2022-08-17T05:21:55.770Z,32.58
2022-08-17T05:24:41.236Z,31.92
2022-08-17T05:27:10.271Z,31.60
2022-08-17T05:29:44.168Z,33.83
2022-08-17T05:32:38.642Z,33.13
2022-08-17T05:35:00.364Z,35.00
2022-08-17T05:37:27.842Z,33.53
2022-08-17T05:39:55.180Z,34.00
2022-08-17T05:42:22.595Z,36.20
2022-08-17T05:44:49.900Z,38.03
2022-08-17T05:47:17.357Z,38.42
2022-08-17T05:49:44.628Z,37.00
2022-08-17T05:52:34.852Z,38.65
2022-08-17T05:55:02.079Z,39.03
2022-08-17T05:57:53.892Z,39.03
2022-08-17T06:00:30.107Z,40.55
2022-08-17T06:03:13.404Z,42.58
2022-08-17T06:05:51.465Z,44.72
2022-08-17T06:08:22.119Z,43.25
2022-08-17T06:10:53.180Z,45.45
2022-08-17T06:13:23.375Z,44.95
2022-08-17T06:15:50.771Z,48.70
2022-08-17T06:18:19.303Z,49.40
2022-08-17T06:20:49.887Z,49.30
2022-08-17T06:23:21.845Z,52.60
2022-08-17T06:25:52.862Z,80.90
2022-08-17T06:28:43.503Z,69.32
2022-08-17T06:31:21.442Z,62.35
2022-08-17T06:33:49.489Z,63.30
2022-08-17T06:36:17.519Z,61.40
2022-08-17T06:39:10.456Z,60.28
2022-08-17T06:41:41.796Z,64.20
2022-08-17T06:44:12.028Z,66.75
2022-08-17T06:47:04.112Z,68.28
2022-08-17T06:49:34.737Z,100.32
2022-08-17T06:52:13.308Z,528.58
2022-08-17T06:55:00.549Z,81.53
2022-08-17T06:57:32.421Z,83.85
2022-08-17T07:00:02.550Z,85.53
2022-08-17T07:02:51.544Z,84.53
2022-08-17T07:05:20.118Z,86.78
2022-08-17T07:08:02.556Z,84.70
2022-08-17T07:10:38.831Z,90.40
2022-08-17T07:13:18.239Z,92.85
2022-08-17T07:15:46.451Z,88.60
2022-08-17T07:18:13.796Z,92.53
2022-08-17T07:20:42.982Z,93.18
2022-08-17T07:23:13.376Z,92.82
2022-08-17T07:25:40.632Z,94.10
2022-08-17T07:28:08.568Z,90.57
2022-08-17T07:30:45.774Z,96.75
2022-08-17T07:33:25.807Z,93.00
2022-08-17T07:35:53.654Z,95.50
2022-08-17T07:38:27.737Z,96.30
2022-08-17T07:40:58.901Z,97.47
2022-08-17T07:43:31.150Z,98.10
2022-08-17T07:46:20.067Z,97.60
2022-08-17T07:48:55.195Z,97.53
2022-08-17T07:51:22.465Z,101.00
2022-08-17T07:53:50.181Z,104.80
2022-08-17T07:56:37.961Z,114.90
2022-08-17T07:59:08.197Z,102.20
2022-08-17T08:01:41.784Z,105.10
2022-08-17T08:04:19.513Z,105.10
2022-08-17T08:06:52.827Z,108.88
2022-08-17T08:09:49.644Z,106.50
2022-08-17T08:12:25.865Z,109.32
2022-08-17T08:15:02.597Z,108.95
2022-08-17T08:17:35.679Z,107.45
2022-08-17T08:20:42.407Z,111.85
2022-08-17T08:23:02.488Z,109.60
2022-08-17T08:25:53.236Z,112.53
2022-08-17T08:28:39.228Z,110.53
2022-08-17T08:31:25.257Z,110.05
2022-08-17T08:34:47.415Z,113.10
2022-08-17T08:37:22.602Z,109.78
2022-08-17T08:39:54.880Z,112.00
2022-08-17T08:42:23.481Z,112.60
2022-08-17T08:45:04.655Z,115.57
2022-08-17T08:47:41.663Z,115.40
2022-08-17T08:50:37.154Z,117.97
2022-08-17T08:53:24.208Z,116.45
2022-08-17T08:56:10.035Z,117.38
2022-08-17T08:58:51.362Z,113.22
2022-08-17T09:01:31.967Z,112.63
2022-08-17T09:04:12.032Z,109.78
2022-08-17T09:06:57.262Z,111.50
2022-08-17T09:09:43.794Z,108.53
2022-08-17T09:12:22.083Z,106.70
2022-08-17T09:15:02.248Z,106.75
2022-08-17T09:17:32.510Z,108.28
2022-08-17T09:20:03.829Z,112.13
2022-08-17T09:22:37.067Z,113.78
2022-08-17T09:25:04.430Z,149.63
2022-08-17T09:27:33.778Z,111.97
2022-08-17T09:30:02.974Z,109.60
2022-08-17T09:32:52.182Z,105.13
2022-08-17T09:35:23.826Z,102.45
2022-08-17T09:38:09.370Z,103.88
2022-08-17T09:40:40.449Z,98.90
2022-08-17T09:43:16.692Z,97.90
2022-08-17T09:45:46.799Z,92.80
2022-08-17T09:48:29.171Z,90.35
2022-08-17T09:51:04.649Z,85.78
2022-08-17T09:53:33.885Z,80.75
2022-08-17T09:56:10.224Z,78.15
2022-08-17T09:58:40.641Z,71.47
2022-08-17T10:01:31.517Z,72.43
2022-08-17T10:04:24.845Z,86.50
2022-08-17T10:07:07.161Z,70.78
2022-08-17T10:09:49.462Z,61.25
2022-08-17T10:12:30.219Z,60.15
2022-08-17T10:15:17.443Z,58.30
2022-08-17T10:18:04.120Z,52.78
2022-08-17T10:20:45.000Z,50.30
2022-08-17T10:23:36.956Z,52.10
2022-08-17T10:26:15.681Z,47.17
2022-08-17T10:29:00.050Z,48.50
2022-08-17T10:31:34.736Z,46.72
2022-08-17T10:34:20.716Z,42.85
2022-08-17T10:36:54.983Z,42.65
2022-08-17T10:39:25.406Z,44.13
2022-08-17T10:41:56.290Z,44.50
2022-08-17T10:44:38.730Z,45.15
2022-08-17T10:47:14.518Z,43.35
2022-08-17T10:49:53.895Z,41.90
2022-08-17T10:52:27.843Z,43.67
2022-08-17T10:54:58.532Z,42.25
2022-08-17T10:57:32.005Z,44.47
2022-08-17T11:00:01.484Z,41.70
2022-08-17T11:02:41.356Z,36.80
2022-08-17T11:05:08.764Z,39.35
2022-08-17T11:07:36.026Z,36.75
2022-08-17T11:10:26.296Z,36.90
2022-08-17T11:13:12.089Z,46.20
2022-08-17T11:15:56.621Z,36.75
2022-08-17T11:18:38.445Z,33.08
2022-08-17T11:21:11.692Z,34.28
2022-08-17T11:23:48.440Z,34.45
2022-08-17T11:26:27.756Z,34.05
2022-08-17T11:28:59.588Z,33.45
2022-08-17T11:31:37.798Z,35.15
2022-08-17T11:34:18.960Z,34.88
2022-08-17T11:36:48.947Z,36.22
2022-08-17T11:39:19.267Z,33.03
2022-08-17T11:42:01.520Z,34.55
2022-08-17T11:44:52.015Z,34.60
2022-08-17T11:48:08.889Z,37.30
2022-08-17T11:50:54.566Z,33.20
2022-08-17T11:53:39.828Z,34.53
2022-08-17T11:56:07.287Z,33.22
2022-08-17T11:58:37.494Z,34.95
2022-08-17T12:01:07.827Z,35.20
2022-08-17T12:03:35.083Z,34.67
2022-08-17T12:06:02.374Z,31.20
2022-08-17T12:08:32.682Z,31.23
2022-08-17T12:11:07.411Z,30.17
2022-08-17T12:13:39.737Z,28.00
2022-08-17T12:16:08.276Z,28.38
2022-08-17T12:18:37.612Z,26.38
2022-08-17T12:21:15.491Z,25.23
2022-08-17T12:24:06.531Z,26.55
2022-08-17T12:26:35.726Z,26.92
2022-08-17T12:29:05.265Z,36.35
2022-08-17T12:31:35.244Z,27.67
2022-08-17T12:34:03.329Z,25.00
2022-08-17T12:36:31.314Z,25.98
2022-08-17T12:39:14.583Z,24.15
2022-08-17T12:41:50.361Z,22.92
2022-08-17T12:44:17.790Z,21.10
2022-08-17T12:47:07.643Z,20.75
2022-08-17T12:49:36.446Z,19.95
2022-08-17T12:52:06.466Z,20.23
2022-08-17T12:54:38.291Z,20.05
2022-08-17T12:57:20.630Z,17.92
2022-08-17T12:59:52.946Z,16.88
2022-08-17T13:02:28.499Z,18.52
2022-08-17T13:04:57.380Z,18.67
2022-08-17T13:07:29.252Z,19.40
2022-08-17T13:09:56.552Z,24.08
2022-08-17T13:12:31.198Z,22.38
2022-08-17T13:14:58.964Z,19.23
2022-08-17T13:17:31.277Z,19.08
2022-08-17T13:19:58.798Z,19.95
2022-08-17T13:22:27.109Z,22.35
2022-08-17T13:24:55.896Z,21.60
2022-08-17T13:27:25.109Z,23.55
2022-08-17T13:29:55.627Z,21.63
2022-08-17T13:32:32.857Z,21.83
2022-08-17T13:35:14.970Z,21.17
2022-08-17T13:38:20.914Z,20.48
2022-08-17T13:40:53.279Z,20.20
2022-08-17T13:43:40.460Z,20.98
2022-08-17T13:46:09.798Z,21.80
2022-08-17T13:48:37.311Z,19.60
2022-08-17T13:51:25.864Z,20.00
2022-08-17T13:53:55.087Z,20.92
2022-08-17T13:56:37.263Z,21.05
2022-08-17T13:59:08.670Z,21.50
2022-08-17T14:01:36.037Z,20.77
2022-08-17T14:04:08.015Z,21.50
2022-08-17T14:06:53.287Z,19.77
2022-08-17T14:09:24.315Z,19.55
2022-08-17T14:11:52.312Z,17.48
2022-08-17T14:14:19.914Z,26.20
2022-08-17T14:16:47.163Z,30.13
2022-08-17T14:19:14.912Z,19.17
2022-08-17T14:21:43.762Z,17.73
2022-08-17T14:24:16.976Z,19.05
2022-08-17T14:26:44.925Z,19.42
2022-08-17T14:29:15.447Z,19.67
2022-08-17T14:31:43.064Z,19.20
2022-08-17T14:34:20.848Z,19.65
2022-08-17T14:36:48.554Z,18.27
2022-08-17T14:39:16.287Z,19.63
2022-08-17T14:41:43.781Z,19.88
2022-08-17T14:44:12.575Z,19.60
2022-08-17T14:46:40.946Z,18.58
2022-08-17T14:49:08.962Z,18.00
2022-08-17T14:51:43.553Z,18.92
2022-08-17T14:54:11.863Z,19.65
2022-08-17T14:57:00.894Z,17.77
2022-08-17T14:59:46.860Z,18.42
2022-08-17T15:02:14.618Z,18.08
2022-08-17T15:04:45.493Z,26.38
2022-08-17T15:07:13.211Z,21.73
2022-08-17T15:09:40.460Z,19.40
2022-08-17T15:12:08.081Z,19.30
2022-08-17T15:14:36.232Z,19.20
2022-08-17T15:17:04.333Z,17.65
2022-08-17T15:19:31.612Z,19.00
2022-08-17T15:21:59.220Z,17.67
2022-08-17T15:24:26.528Z,16.08
2022-08-17T15:26:53.751Z,17.25
2022-08-17T15:29:21.264Z,16.25
2022-08-17T15:31:48.493Z,16.73
2022-08-17T15:34:17.332Z,17.23
2022-08-17T15:36:49.225Z,18.48
2022-08-17T15:39:19.700Z,18.42
2022-08-17T15:41:47.432Z,17.27
2022-08-17T15:44:30.224Z,17.38
2022-08-17T15:47:02.126Z,17.17
2022-08-17T15:49:29.461Z,16.85
2022-08-17T15:51:56.755Z,16.58
2022-08-17T15:54:24.046Z,19.17
2022-08-17T15:56:51.504Z,24.35
2022-08-17T15:59:19.444Z,16.17
2022-08-17T16:03:14.650Z,15.23
2022-08-17T16:04:34.152Z,14.63
2022-08-17T16:07:01.518Z,13.98
2022-08-17T16:09:28.850Z,12.45
2022-08-17T16:11:56.627Z,13.45
2022-08-17T16:14:32.335Z,11.60
2022-08-17T16:17:02.168Z,13.02
2022-08-17T16:19:29.462Z,12.75
2022-08-17T16:21:56.758Z,12.50
2022-08-17T16:24:24.093Z,12.18
2022-08-17T16:26:51.572Z,12.35
2022-08-17T16:29:18.865Z,13.63
2022-08-17T16:31:46.128Z,15.15
2022-08-17T16:34:16.776Z,18.75
2022-08-17T16:36:55.433Z,22.10
2022-08-17T16:39:27.325Z,9.90
2022-08-17T16:41:55.856Z,7.53
2022-08-17T16:44:23.195Z,7.70
2022-08-17T16:46:50.776Z,12.20
2022-08-17T16:49:36.119Z,13.65
2022-08-17T16:52:05.298Z,14.45
2022-08-17T16:54:33.500Z,18.08
2022-08-17T16:57:00.802Z,18.17
2022-08-17T16:59:30.754Z,14.93
2022-08-17T17:04:35.009Z,8.20
2022-08-17T17:07:17.801Z,6.78
2022-08-17T17:09:48.876Z,6.15
2022-08-17T17:12:19.239Z,5.75
2022-08-17T17:15:05.768Z,5.95
2022-08-17T17:17:37.605Z,5.97
2022-08-17T17:20:13.987Z,5.50
2022-08-17T17:22:50.223Z,5.18
2022-08-17T17:25:20.258Z,5.75
2022-08-17T17:27:50.477Z,5.43
2022-08-17T17:30:20.820Z,5.47
2022-08-17T17:32:57.310Z,5.55
2022-08-17T17:35:33.716Z,5.60
2022-08-17T17:38:06.365Z,5.65
2022-08-17T17:40:39.253Z,6.25
2022-08-17T17:43:34.724Z,5.53
2022-08-17T17:45:58.543Z,5.57
2022-08-17T17:48:45.768Z,4.95
2022-08-17T17:52:02.846Z,16.08
2022-08-17T17:56:43.271Z,5.45
2022-08-17T17:59:18.400Z,4.47
2022-08-17T18:01:45.907Z,4.25
2022-08-17T18:04:20.730Z,5.03
2022-08-17T18:06:57.777Z,5.15
2022-08-17T18:09:51.643Z,4.80
2022-08-17T18:12:26.104Z,4.95
2022-08-17T18:15:02.184Z,5.32
2022-08-17T18:17:31.075Z,5.93
2022-08-17T18:19:58.475Z,7.40
2022-08-17T18:22:27.775Z,7.78
2022-08-17T18:24:57.206Z,10.43
2022-08-17T18:27:32.153Z,12.02
2022-08-17T18:30:03.443Z,12.52
2022-08-17T18:32:42.530Z,13.90
2022-08-17T18:35:09.762Z,14.93
2022-08-17T18:37:45.980Z,16.70
2022-08-17T18:40:23.387Z,17.10
2022-08-17T18:42:56.674Z,18.02
2022-08-17T18:45:41.754Z,17.65
2022-08-17T18:48:24.474Z,17.65
2022-08-17T18:50:53.586Z,16.98
2022-08-17T18:53:26.620Z,16.25
2022-08-17T18:56:08.477Z,17.92
2022-08-17T18:58:36.226Z,15.73
2022-08-17T19:01:03.669Z,14.48
2022-08-17T19:03:30.952Z,13.88
2022-08-17T19:06:17.104Z,12.45
2022-08-17T19:08:44.492Z,26.67
2022-08-17T19:11:20.823Z,11.50
2022-08-17T19:14:08.307Z,10.50
2022-08-17T19:16:41.726Z,10.07
2022-08-17T19:19:14.429Z,9.27
2022-08-17T19:21:47.659Z,20.10
2022-08-17T19:24:19.595Z,21.95
2022-08-17T19:26:56.108Z,9.35
2022-08-17T19:29:26.961Z,8.85
2022-08-17T19:31:56.209Z,8.63
2022-08-17T19:34:30.054Z,8.82
2022-08-17T19:37:10.412Z,8.57
2022-08-17T19:39:40.477Z,8.20
2022-08-17T19:42:07.756Z,8.35
2022-08-17T19:44:55.270Z,8.68
2022-08-17T19:47:53.676Z,8.13
2022-08-17T19:50:39.049Z,8.40
2022-08-17T19:53:21.542Z,8.82
2022-08-17T19:56:03.924Z,8.35
2022-08-17T19:58:44.799Z,8.50
2022-08-17T20:01:13.641Z,8.87
2022-08-17T20:03:46.909Z,8.65
2022-08-17T20:06:14.614Z,8.57
2022-08-17T20:08:48.628Z,8.10
2022-08-17T20:11:27.313Z,7.80
2022-08-17T20:14:17.615Z,7.50
2022-08-17T20:16:44.976Z,7.72
2022-08-17T20:19:38.462Z,7.20
2022-08-17T20:22:11.661Z,8.32
2022-08-17T20:24:38.925Z,7.75
2022-08-17T20:27:09.252Z,7.68
2022-08-17T20:30:09.774Z,7.60
2022-08-17T20:32:49.126Z,7.50
2022-08-17T20:35:27.399Z,7.10
2022-08-17T20:37:56.629Z,33.88
2022-08-17T20:40:28.868Z,7.65
2022-08-17T20:42:56.781Z,7.30
2022-08-17T20:45:26.332Z,7.28
2022-08-17T20:48:36.706Z,6.43
2022-08-17T20:51:34.639Z,5.95
2022-08-17T20:54:06.925Z,6.60
2022-08-17T20:56:44.299Z,6.13
2022-08-17T20:59:38.507Z,5.50
2022-08-17T21:02:18.966Z,5.95
2022-08-17T21:04:59.941Z,5.97
2022-08-17T21:07:30.267Z,8.55
2022-08-17T21:10:09.750Z,6.90
2022-08-17T21:12:47.944Z,7.28
2022-08-17T21:15:34.945Z,6.95
2022-08-17T21:18:20.929Z,7.93
2022-08-17T21:21:08.408Z,8.00
2022-08-17T21:23:40.393Z,7.80
2022-08-17T21:26:07.637Z,7.90
2022-08-17T21:28:34.935Z,8.23
2022-08-17T21:31:08.940Z,8.45
2022-08-17T21:33:38.779Z,8.40
2022-08-17T21:36:06.013Z,8.52
2022-08-17T21:38:36.391Z,9.32
2022-08-17T21:41:03.834Z,8.07
2022-08-17T21:43:32.652Z,8.15
2022-08-17T21:46:08.348Z,9.18
2022-08-17T21:48:48.298Z,8.63
2022-08-17T21:51:28.813Z,9.52
2022-08-17T21:54:00.843Z,9.55
2022-08-17T21:56:31.499Z,9.27
2022-08-17T21:59:03.771Z,8.88
2022-08-17T22:01:39.905Z,8.95
2022-08-17T22:04:18.935Z,8.57
2022-08-17T22:06:57.347Z,8.07
2022-08-17T22:09:28.074Z,13.13
2022-08-17T22:12:13.763Z,8.37
2022-08-17T22:14:52.181Z,8.02
2022-08-17T22:17:28.751Z,7.93
2022-08-17T22:20:16.867Z,8.20
2022-08-17T22:23:05.543Z,7.80
2022-08-17T22:25:52.747Z,7.78
2022-08-17T22:28:36.520Z,8.55
2022-08-17T22:31:07.259Z,8.35
2022-08-17T22:33:40.515Z,8.18
2022-08-17T22:36:29.041Z,8.50
2022-08-17T22:39:05.803Z,9.00
2022-08-17T22:41:34.394Z,9.00
2022-08-17T22:44:09.101Z,9.27
2022-08-17T22:46:39.468Z,9.50
2022-08-17T22:49:07.315Z,9.38
2022-08-17T22:51:34.633Z,9.70
2022-08-17T22:54:22.093Z,9.57
2022-08-17T22:57:11.644Z,9.68
2022-08-17T22:59:48.375Z,9.30
2022-08-17T23:02:27.793Z,9.25
2022-08-17T23:05:10.754Z,8.90
2022-08-17T23:07:47.793Z,9.60
2022-08-17T23:10:15.453Z,9.85
2022-08-17T23:12:42.933Z,8.77
2022-08-17T23:15:17.958Z,9.52
2022-08-17T23:17:45.615Z,8.88
2022-08-17T23:20:13.781Z,8.00
2022-08-17T23:22:51.100Z,8.38
2022-08-17T23:25:25.202Z,8.30
2022-08-17T23:27:52.706Z,8.57
2022-08-17T23:30:20.344Z,8.10
2022-08-17T23:32:53.557Z,8.60
2022-08-17T23:35:39.219Z,8.30
2022-08-17T23:38:09.210Z,8.13
2022-08-17T23:40:37.791Z,8.07
2022-08-17T23:43:23.373Z,7.78
2022-08-17T23:45:57.608Z,5.55
2022-08-17T23:48:35.084Z,5.60
2022-08-17T23:51:04.773Z,5.50
2022-08-17T23:53:34.767Z,5.28
2022-08-17T23:56:09.437Z,5.38
2022-08-17T23:58:38.581Z,6.50
